Time;durP1;ratioP1;P1;durP2;ratioP2;P2;SDS_P1;SDS_P2;PMS_P1;PMS_P2;Temp;Humidity;BMP_temperature;BMP_pressure;BME280_temperature;BME280_humidity;BME280_pressure;Samples;Min_cycle;Max_cycle;Signal;HPM_P1;HPM_P2
2022/05/04 00:00:24;;;;;;;18.40;11.10;;;;;;;;;;5115323;28;20486;-79
2022/05/04 00:02:51;;;;;;;13.83;10.23;;;;;;;;;;5116453;27;20447;-80
2022/05/04 00:05:18;;;;;;;14.07;11.23;;;;;;;;;;5119011;27;20941;-77
2022/05/04 00:07:45;;;;;;;13.73;10.50;;;;;;;;;;5123204;27;20919;-79
2022/05/04 00:10:13;;;;;;;15.30;11.00;;;;;;;;;;5132905;27;20442;-78
2022/05/04 00:12:40;;;;;;;17.97;11.63;;;;;;;;;;5133188;27;21110;-79
2022/05/04 00:15:08;;;;;;;14.90;10.87;;;;;;;;;;5133184;27;20725;-80
2022/05/04 00:17:37;;;;;;;14.67;11.27;;;;;;;;;;5133704;27;20437;-80
2022/05/04 00:20:04;;;;;;;20.90;11.80;;;;;;;;;;5123317;27;20478;-77
2022/05/04 00:22:31;;;;;;;17.40;11.90;;;;;;;;;;5114612;28;20465;-76
2022/05/04 00:24:59;;;;;;;17.67;13.10;;;;;;;;;;5114724;28;20442;-77
2022/05/04 00:27:26;;;;;;;21.07;12.23;;;;;;;;;;5117329;27;20437;-78
2022/05/04 00:29:53;;;;;;;20.40;13.80;;;;;;;;;;5118150;27;20434;-77
2022/05/04 00:32:21;;;;;;;21.40;13.33;;;;;;;;;;5111763;28;20469;-79
2022/05/04 00:34:50;;;;;;;18.97;13.70;;;;;;;;;;5112134;28;20441;-80
2022/05/04 00:37:17;;;;;;;18.47;13.73;;;;;;;;;;5112432;28;20450;-77
2022/05/04 00:39:44;;;;;;;23.43;15.23;;;;;;;;;;5112664;28;20439;-80
2022/05/04 00:42:12;;;;;;;16.80;12.93;;;;;;;;;;5112355;28;20462;-79
2022/05/04 00:44:40;;;;;;;19.23;14.50;;;;;;;;;;5113454;28;20521;-78
2022/05/04 00:47:08;;;;;;;19.40;12.67;;;;;;;;;;5114260;28;20438;-81
2022/05/04 00:49:35;;;;;;;23.20;14.50;;;;;;;;;;5116165;27;20434;-78
2022/05/04 00:52:05;;;;;;;17.17;14.20;;;;;;;;;;5117915;27;20456;-77
2022/05/04 00:54:32;;;;;;;17.30;13.40;;;;;;;;;;5111897;27;20949;-79
2022/05/04 00:57:00;;;;;;;23.47;13.93;;;;;;;;;;5111939;28;20434;-78
2022/05/04 00:59:27;;;;;;;21.33;14.07;;;;;;;;;;5112162;28;20641;-78
2022/05/04 01:01:54;;;;;;;17.23;12.43;;;;;;;;;;5112412;28;20490;-80
2022/05/04 01:04:22;;;;;;;20.00;13.80;;;;;;;;;;5111496;28;20528;-80
2022/05/04 01:06:49;;;;;;;19.83;12.93;;;;;;;;;;5114601;28;20782;-76
2022/05/04 01:09:17;;;;;;;18.20;13.57;;;;;;;;;;5114148;28;20464;-76
2022/05/04 01:11:46;;;;;;;15.90;12.57;;;;;;;;;;5116403;27;20464;-78
2022/05/04 01:14:14;;;;;;;20.07;14.10;;;;;;;;;;5116365;27;20426;-81
2022/05/04 01:16:42;;;;;;;19.60;13.60;;;;;;;;;;5111550;28;20461;-78
2022/05/04 01:19:10;;;;;;;22.00;14.47;;;;;;;;;;5111893;28;20525;-78
2022/05/04 01:21:37;;;;;;;21.83;14.07;;;;;;;;;;5111860;28;20486;-80
2022/05/04 01:24:06;;;;;;;19.87;13.87;;;;;;;;;;5112141;28;20438;-80
2022/05/04 01:26:34;;;;;;;23.20;13.70;;;;;;;;;;5111920;28;20442;-76
2022/05/04 01:29:02;;;;;;;19.60;13.67;;;;;;;;;;5113136;28;20533;-76
2022/05/04 01:31:29;;;;;;;17.23;12.90;;;;;;;;;;5113572;28;20470;-79
2022/05/04 01:33:56;;;;;;;16.73;11.87;;;;;;;;;;5115380;28;20927;-78
2022/05/04 01:36:23;;;;;;;19.20;11.53;;;;;;;;;;5116479;28;20431;-80
2022/05/04 01:38:51;;;;;;;18.93;12.53;;;;;;;;;;5113758;28;20468;-78
2022/05/04 01:44:00;;;;;;;18.57;11.53;;;;;;;;;;5111251;28;20475;-79
2022/05/04 01:46:27;;;;;;;14.00;11.47;;;;;;;;;;5111945;28;20811;-79
2022/05/04 01:48:55;;;;;;;14.83;12.17;;;;;;;;;;5111796;28;20461;-78
2022/05/04 01:51:22;;;;;;;17.37;12.70;;;;;;;;;;5112628;28;20841;-80
2022/05/04 01:53:50;;;;;;;15.73;13.10;;;;;;;;;;5113608;28;20912;-80
2022/05/04 01:56:17;;;;;;;15.20;11.70;;;;;;;;;;5115298;28;20431;-78
2022/05/04 01:58:45;;;;;;;17.40;12.10;;;;;;;;;;5119252;27;20453;-78
2022/05/04 02:01:13;;;;;;;17.87;11.93;;;;;;;;;;5117828;27;20481;-79
2022/05/04 02:03:40;;;;;;;16.27;12.33;;;;;;;;;;5115362;28;20461;-77
2022/05/04 02:06:07;;;;;;;17.57;13.37;;;;;;;;;;5115236;28;20442;-79
2022/05/04 02:08:35;;;;;;;17.70;13.23;;;;;;;;;;5114111;28;20449;-78
2022/05/04 02:11:02;;;;;;;20.57;14.07;;;;;;;;;;5115492;28;20998;-80
2022/05/04 02:13:30;;;;;;;18.10;12.57;;;;;;;;;;5115807;28;21000;-79
2022/05/04 02:15:59;;;;;;;17.47;12.70;;;;;;;;;;5117125;28;20458;-78
2022/05/04 02:18:26;;;;;;;19.37;12.50;;;;;;;;;;5118329;27;20476;-80
2022/05/04 02:20:53;;;;;;;17.13;13.10;;;;;;;;;;5120768;27;20477;-80
2022/05/04 02:23:20;;;;;;;20.47;13.23;;;;;;;;;;5124970;27;20901;-78
2022/05/04 02:25:48;;;;;;;18.10;12.67;;;;;;;;;;5135166;27;20794;-80
2022/05/04 02:28:15;;;;;;;29.50;13.60;;;;;;;;;;5135440;27;20437;-76
2022/05/04 02:30:43;;;;;;;17.80;12.00;;;;;;;;;;5135277;27;20491;-79
2022/05/04 02:33:12;;;;;;;15.60;12.03;;;;;;;;;;5135809;27;21010;-77
2022/05/04 02:38:21;;;;;;;19.47;14.03;;;;;;;;;;5116572;28;20454;-79
2022/05/04 02:40:48;;;;;;;20.30;12.80;;;;;;;;;;5117287;27;20533;-77
2022/05/04 02:43:16;;;;;;;22.70;13.63;;;;;;;;;;5120575;27;20430;-78
2022/05/04 02:45:43;;;;;;;18.70;13.27;;;;;;;;;;5118888;27;20444;-78
2022/05/04 02:48:11;;;;;;;17.93;13.47;;;;;;;;;;5114145;28;20438;-78
2022/05/04 02:50:39;;;;;;;17.03;12.00;;;;;;;;;;5112783;28;20455;-78
2022/05/04 02:53:06;;;;;;;18.03;12.67;;;;;;;;;;5114677;28;20442;-77
2022/05/04 02:55:33;;;;;;;20.13;12.87;;;;;;;;;;5114801;28;20949;-78
2022/05/04 02:58:01;;;;;;;17.77;12.13;;;;;;;;;;5114731;28;20449;-80
2022/05/04 03:00:28;;;;;;;19.87;13.03;;;;;;;;;;5116268;28;20798;-79
2022/05/04 03:02:55;;;;;;;18.40;11.90;;;;;;;;;;5116262;28;20435;-80
2022/05/04 03:05:25;;;;;;;19.80;12.40;;;;;;;;;;5119969;27;20460;-78
2022/05/04 03:07:52;;;;;;;17.70;12.50;;;;;;;;;;5121418;27;20438;-77
2022/05/04 03:10:20;;;;;;;18.50;12.77;;;;;;;;;;5132492;27;20446;-77
2022/05/04 03:12:47;;;;;;;14.90;11.83;;;;;;;;;;5134335;27;20448;-80
2022/05/04 03:15:14;;;;;;;14.10;10.57;;;;;;;;;;5134293;27;20556;-77
2022/05/04 03:17:42;;;;;;;14.47;11.03;;;;;;;;;;5134831;27;20453;-77
2022/05/04 03:20:10;;;;;;;13.17;10.93;;;;;;;;;;5129965;27;20458;-79
2022/05/04 03:22:38;;;;;;;13.47;11.33;;;;;;;;;;5115995;28;20481;-81
2022/05/04 03:25:07;;;;;;;14.23;10.00;;;;;;;;;;5116085;28;20443;-78
2022/05/04 03:27:35;;;;;;;14.83;11.23;;;;;;;;;;5118893;27;20461;-79
2022/05/04 03:30:02;;;;;;;14.33;12.00;;;;;;;;;;5119647;27;21026;-79
2022/05/04 03:32:30;;;;;;;13.73;10.60;;;;;;;;;;5113647;27;20465;-80
2022/05/04 03:34:57;;;;;;;14.13;10.80;;;;;;;;;;5113454;28;20430;-80
2022/05/04 03:37:24;;;;;;;17.10;11.27;;;;;;;;;;5113516;28;20434;-78
2022/05/04 03:39:52;;;;;;;18.83;11.60;;;;;;;;;;5113930;28;20438;-79
2022/05/04 03:42:20;;;;;;;16.73;11.67;;;;;;;;;;5112712;28;20494;-78
2022/05/04 03:44:47;;;;;;;19.93;12.23;;;;;;;;;;5115340;28;20447;-80
2022/05/04 03:47:14;;;;;;;15.27;10.80;;;;;;;;;;5115577;28;20796;-78
2022/05/04 03:49:41;;;;;;;18.53;10.70;;;;;;;;;;5118033;27;20825;-76
2022/05/04 03:52:09;;;;;;;16.27;11.53;;;;;;;;;;5119320;27;20456;-80
2022/05/04 03:54:36;;;;;;;17.30;10.77;;;;;;;;;;5128600;27;20880;-80
2022/05/04 03:57:05;;;;;;;14.97;10.43;;;;;;;;;;5133553;27;20448;-81
2022/05/04 03:59:32;;;;;;;16.70;10.37;;;;;;;;;;5133537;27;20438;-79
2022/05/04 04:01:59;;;;;;;14.70;10.50;;;;;;;;;;5133802;27;20485;-79
2022/05/04 04:04:26;;;;;;;14.47;9.60;;;;;;;;;;5133902;27;20989;-77
2022/05/04 04:06:54;;;;;;;15.33;10.37;;;;;;;;;;5117565;27;20465;-77
2022/05/04 04:09:21;;;;;;;14.27;10.47;;;;;;;;;;5115537;28;20438;-79
2022/05/04 04:11:48;;;;;;;16.50;10.10;;;;;;;;;;5118170;27;20449;-81
2022/05/04 04:14:16;;;;;;;11.57;9.83;;;;;;;;;;5120447;27;20425;-77
2022/05/04 04:16:43;;;;;;;16.93;10.40;;;;;;;;;;5126891;27;20461;-79
2022/05/04 04:19:11;;;;;;;11.33;10.13;;;;;;;;;;5133382;27;20504;-78
2022/05/04 04:24:19;;;;;;;15.37;10.70;;;;;;;;;;5132268;27;20444;-78
2022/05/04 04:26:46;;;;;;;13.60;9.90;;;;;;;;;;5133595;27;20979;-81
2022/05/04 04:29:13;;;;;;;16.90;11.00;;;;;;;;;;5117885;27;20442;-80
2022/05/04 04:31:42;;;;;;;18.97;10.87;;;;;;;;;;5114738;28;20471;-78
2022/05/04 04:34:09;;;;;;;13.37;10.30;;;;;;;;;;5115942;27;20843;-81
2022/05/04 04:36:36;;;;;;;13.73;10.43;;;;;;;;;;5118609;27;20433;-79
2022/05/04 04:39:04;;;;;;;15.40;10.87;;;;;;;;;;5123740;27;20934;-77
2022/05/04 04:41:31;;;;;;;12.83;10.57;;;;;;;;;;5131645;27;20489;-79
2022/05/04 04:43:58;;;;;;;15.40;10.60;;;;;;;;;;5132950;27;20433;-80
2022/05/04 04:46:25;;;;;;;15.43;9.80;;;;;;;;;;5132845;27;20501;-79
2022/05/04 04:48:54;;;;;;;19.20;10.50;;;;;;;;;;5133193;27;20914;-77
2022/05/04 04:51:21;;;;;;;14.83;10.20;;;;;;;;;;5121165;27;20478;-77
2022/05/04 04:53:49;;;;;;;12.63;9.20;;;;;;;;;;5113318;28;20933;-79
2022/05/04 04:56:16;;;;;;;12.60;10.03;;;;;;;;;;5114571;28;20430;-78
2022/05/04 04:58:43;;;;;;;13.10;10.13;;;;;;;;;;5118159;27;20430;-79
2022/05/04 05:01:10;;;;;;;12.50;9.40;;;;;;;;;;5117867;27;20477;-81
2022/05/04 05:03:37;;;;;;;13.17;8.90;;;;;;;;;;5111244;28;20435;-83
2022/05/04 05:06:06;;;;;;;13.10;9.97;;;;;;;;;;5111546;28;20546;-77
2022/05/04 05:08:33;;;;;;;13.30;8.83;;;;;;;;;;5112275;28;20434;-78
2022/05/04 05:11:00;;;;;;;13.93;9.60;;;;;;;;;;5112363;28;20459;-81
2022/05/04 05:13:27;;;;;;;12.03;9.40;;;;;;;;;;5111974;28;20442;-77
2022/05/04 05:18:36;;;;;;;12.70;8.93;;;;;;;;;;5112652;28;20422;-79
2022/05/04 05:21:03;;;;;;;14.63;9.20;;;;;;;;;;5117554;28;20817;-78
2022/05/04 05:23:31;;;;;;;13.77;9.80;;;;;;;;;;5117857;28;20426;-80
2022/05/04 05:25:59;;;;;;;11.80;9.20;;;;;;;;;;5111380;28;20434;-78
2022/05/04 05:28:26;;;;;;;23.03;10.00;;;;;;;;;;5111582;28;20865;-80
2022/05/04 05:30:53;;;;;;;12.13;8.07;;;;;;;;;;5111994;28;20973;-77
2022/05/04 05:33:20;;;;;;;11.97;8.83;;;;;;;;;;5115506;28;20438;-79
2022/05/04 05:35:48;;;;;;;11.30;8.70;;;;;;;;;;5116061;28;20454;-76
2022/05/04 05:38:15;;;;;;;19.13;10.30;;;;;;;;;;5118117;28;20802;-77
2022/05/04 05:40:43;;;;;;;11.93;8.93;;;;;;;;;;5118260;28;20541;-80
2022/05/04 05:43:11;;;;;;;16.93;10.17;;;;;;;;;;5121233;27;20479;-79
2022/05/04 05:45:38;;;;;;;15.63;9.90;;;;;;;;;;5120323;27;20815;-77
2022/05/04 05:48:05;;;;;;;11.60;9.03;;;;;;;;;;5115846;27;20426;-76
2022/05/04 05:50:34;;;;;;;11.90;8.60;;;;;;;;;;5118117;27;20489;-78
2022/05/04 05:53:01;;;;;;;13.27;9.50;;;;;;;;;;5102968;28;20455;-77
2022/05/04 05:55:28;;;;;;;12.43;8.93;;;;;;;;;;5098003;27;20464;-76
2022/05/04 05:57:56;;;;;;;13.00;8.90;;;;;;;;;;5115003;28;20433;-78
2022/05/04 06:00:24;;;;;;;12.87;8.37;;;;;;;;;;5118859;27;20438;-75
2022/05/04 06:02:51;;;;;;;11.30;8.27;;;;;;;;;;5117261;27;20865;-77
2022/05/04 06:05:18;;;;;;;11.83;8.50;;;;;;;;;;5114831;27;20450;-81
2022/05/04 06:07:45;;;;;;;14.10;8.40;;;;;;;;;;5114974;28;20438;-78
2022/05/04 06:10:12;;;;;;;9.50;8.00;;;;;;;;;;5113790;28;20532;-77
2022/05/04 06:12:40;;;;;;;11.70;8.20;;;;;;;;;;5115474;28;20465;-79
2022/05/04 06:15:10;;;;;;;14.70;8.80;;;;;;;;;;5115815;28;20832;-78
2022/05/04 06:17:37;;;;;;;16.27;8.23;;;;;;;;;;5116285;28;20446;-75
2022/05/04 06:20:04;;;;;;;12.13;8.70;;;;;;;;;;5114381;27;20462;-77
2022/05/04 06:22:32;;;;;;;13.30;8.60;;;;;;;;;;5103019;27;20499;-76
2022/05/04 06:24:59;;;;;;;11.70;8.77;;;;;;;;;;5120704;27;20425;-76
2022/05/04 06:27:28;;;;;;;17.70;9.37;;;;;;;;;;5124622;27;20926;-79
2022/05/04 06:35:19;;;;;;;14.67;9.40;;;;;;;;;;5114759;28;20939;-78
2022/05/04 06:37:47;;;;;;;13.63;9.50;;;;;;;;;;5115323;28;20447;-77
2022/05/04 06:40:14;;;;;;;15.77;10.82;;;;;;;;;;5114891;28;20435;-77
2022/05/04 06:42:41;;;;;;;24.03;9.10;;;;;;;;;;5114177;27;20224;-76
2022/05/04 06:45:09;;;;;;;12.17;8.73;;;;;;;;;;5116068;27;20449;-77
2022/05/04 06:47:36;;;;;;;10.90;8.00;;;;;;;;;;5120390;27;20436;-76
2022/05/04 06:50:05;;;;;;;10.60;8.67;;;;;;;;;;5116761;27;20478;-76
2022/05/04 06:52:33;;;;;;;16.73;9.38;;;;;;;;;;5110424;27;20462;-75
2022/05/04 06:55:00;;;;;;;10.50;8.00;;;;;;;;;;5114237;28;20512;-77
2022/05/04 06:57:27;;;;;;;14.90;9.37;;;;;;;;;;5115105;27;20454;-78
2022/05/04 06:59:54;;;;;;;12.37;8.07;;;;;;;;;;5114906;27;20457;-77
2022/05/04 07:02:21;;;;;;;14.50;7.93;;;;;;;;;;5110603;27;20497;-78
2022/05/04 07:04:50;;;;;;;10.00;8.20;;;;;;;;;;5119681;27;20425;-83
2022/05/04 07:07:19;;;;;;;11.10;7.93;;;;;;;;;;5116525;27;20449;-76
2022/05/04 07:09:46;;;;;;;12.40;8.13;;;;;;;;;;5113469;28;20463;-78
2022/05/04 07:12:13;;;;;;;13.93;8.83;;;;;;;;;;5114025;28;20461;-77
2022/05/04 07:14:40;;;;;;;16.30;9.30;;;;;;;;;;5114034;28;20435;-81
2022/05/04 07:17:08;;;;;;;11.60;8.70;;;;;;;;;;5114384;28;20541;-81
2022/05/04 07:19:35;;;;;;;15.80;8.60;;;;;;;;;;5113911;28;20450;-78
2022/05/04 07:22:02;;;;;;;12.40;9.03;;;;;;;;;;5116490;28;20474;-78
2022/05/04 07:24:31;;;;;;;16.87;9.60;;;;;;;;;;5116783;28;20434;-77
2022/05/04 07:26:58;;;;;;;9.63;7.23;;;;;;;;;;5118878;27;20791;-75
2022/05/04 07:29:26;;;;;;;11.67;8.03;;;;;;;;;;5119723;27;20525;-77
2022/05/04 07:31:53;;;;;;;13.10;9.10;;;;;;;;;;5114825;27;20463;-78
2022/05/04 07:34:20;;;;;;;14.40;9.00;;;;;;;;;;5113589;28;20437;-75
2022/05/04 07:36:48;;;;;;;15.67;8.90;;;;;;;;;;5113756;28;20445;-77
2022/05/04 07:44:40;;;;;;;17.93;9.73;;;;;;;;;;5095052;28;20428;-76
2022/05/04 07:47:07;;;;;;;12.77;9.00;;;;;;;;;;5095501;28;20534;-77
2022/05/04 07:49:35;;;;;;;13.67;9.87;;;;;;;;;;5110641;27;20510;-79
2022/05/04 07:52:02;;;;;;;9.00;7.87;;;;;;;;;;5119704;27;20445;-78
2022/05/04 07:54:29;;;;;;;10.80;8.90;;;;;;;;;;5129395;27;20426;-75
2022/05/04 07:56:57;;;;;;;11.17;9.37;;;;;;;;;;5132399;27;20513;-76
2022/05/04 07:59:25;;;;;;;16.60;9.70;;;;;;;;;;5133986;27;20433;-77
2022/05/04 08:04:34;;;;;;;13.70;10.60;;;;;;;;;;5133242;27;20545;-76
2022/05/04 08:07:01;;;;;;;13.63;12.33;;;;;;;;;;5115041;27;20880;-76
2022/05/04 08:09:34;;;;;;;12.83;9.67;;;;;;;;;;5115232;28;20995;-75
2022/05/04 08:12:03;;;;;;;14.80;9.53;;;;;;;;;;5116886;27;20468;-78
2022/05/04 08:14:30;;;;;;;11.40;8.53;;;;;;;;;;5118849;27;20429;-77
2022/05/04 08:16:57;;;;;;;12.20;9.13;;;;;;;;;;5113941;27;20467;-78
2022/05/04 08:19:24;;;;;;;10.57;9.30;;;;;;;;;;5112500;28;20437;-79
2022/05/04 08:21:52;;;;;;;13.73;10.33;;;;;;;;;;5112218;28;20465;-78
2022/05/04 08:24:19;;;;;;;13.20;10.47;;;;;;;;;;5112719;28;20447;-77
2022/05/04 08:26:46;;;;;;;12.10;10.20;;;;;;;;;;5112849;28;20449;-78
2022/05/04 08:29:15;;;;;;;12.37;10.33;;;;;;;;;;5113714;28;20459;-78
2022/05/04 08:31:42;;;;;;;14.80;10.50;;;;;;;;;;5118048;27;20438;-76
2022/05/04 08:34:09;;;;;;;15.03;10.97;;;;;;;;;;5119757;27;20433;-77
2022/05/04 08:36:39;;;;;;;14.93;10.73;;;;;;;;;;5132282;27;20442;-77
2022/05/04 08:39:07;;;;;;;14.90;9.93;;;;;;;;;;5132983;27;20536;-77
2022/05/04 08:41:35;;;;;;;13.60;10.47;;;;;;;;;;5133007;27;20468;-77
2022/05/04 08:44:04;;;;;;;16.40;10.27;;;;;;;;;;5133377;27;20520;-78
2022/05/04 08:46:34;;;;;;;17.97;10.87;;;;;;;;;;5127206;27;20442;-77
2022/05/04 08:49:02;;;;;;;14.27;9.70;;;;;;;;;;5114320;28;20447;-77
2022/05/04 08:51:30;;;;;;;15.47;10.53;;;;;;;;;;5114468;28;20523;-78
2022/05/04 08:53:57;;;;;;;17.97;10.37;;;;;;;;;;5117977;27;20796;-78
2022/05/04 08:56:24;;;;;;;13.80;11.73;;;;;;;;;;5118631;27;20512;-78
2022/05/04 08:58:51;;;;;;;14.30;10.93;;;;;;;;;;5132635;27;20452;-78
2022/05/04 09:01:18;;;;;;;14.63;11.97;;;;;;;;;;5132705;27;20458;-78
2022/05/04 09:03:47;;;;;;;13.00;10.10;;;;;;;;;;5132420;27;20837;-78
2022/05/04 09:06:27;;;;;;;13.27;10.77;;;;;;;;;;5132142;27;20442;-79
2022/05/04 09:08:54;;;;;;;12.87;10.63;;;;;;;;;;5127765;27;20462;-78
2022/05/04 09:11:22;;;;;;;11.70;8.90;;;;;;;;;;5113093;28;20463;-79
2022/05/04 09:13:49;;;;;;;12.27;9.60;;;;;;;;;;5114228;28;20442;-78
2022/05/04 09:16:25;;;;;;;14.67;11.90;;;;;;;;;;5115480;27;20469;-78
2022/05/04 09:18:55;;;;;;;12.90;10.60;;;;;;;;;;5117604;27;20910;-78
2022/05/04 09:21:22;;;;;;;11.50;9.10;;;;;;;;;;5110923;28;20989;-78
2022/05/04 09:23:52;;;;;;;17.37;13.80;;;;;;;;;;5110111;28;20478;-77
2022/05/04 09:26:20;;;;;;;14.87;10.77;;;;;;;;;;5111530;28;20537;-78
2022/05/04 09:28:51;;;;;;;18.60;11.93;;;;;;;;;;5110799;28;20430;-78
2022/05/04 09:31:20;;;;;;;15.70;10.97;;;;;;;;;;5106600;28;20455;-76
2022/05/04 09:33:53;;;;;;;13.50;11.73;;;;;;;;;;5099458;28;20461;-78
2022/05/04 09:36:32;;;;;;;16.07;13.30;;;;;;;;;;5112729;28;20441;-77
2022/05/04 09:47:09;;;;;;;15.20;12.50;;;;;;;;;;5130527;27;20433;-77
2022/05/04 09:49:37;;;;;;;15.77;11.00;;;;;;;;;;5129275;27;20433;-76
2022/05/04 09:52:06;;;;;;;18.50;12.30;;;;;;;;;;5113743;28;20462;-75
2022/05/04 09:54:34;;;;;;;18.23;14.10;;;;;;;;;;5112644;28;20443;-79
2022/05/04 09:57:02;;;;;;;17.30;11.20;;;;;;;;;;5117107;28;20516;-77
2022/05/04 09:59:33;;;;;;;14.57;11.93;;;;;;;;;;5116937;27;20451;-77
2022/05/04 10:02:02;;;;;;;16.83;14.50;;;;;;;;;;5089123;28;20451;-76
2022/05/04 10:04:29;;;;;;;15.87;13.33;;;;;;;;;;5090844;28;20497;-77
2022/05/04 10:06:56;;;;;;;15.30;11.57;;;;;;;;;;5091328;28;20431;-77
2022/05/04 10:09:25;;;;;;;19.10;13.97;;;;;;;;;;5091739;28;20470;-78
2022/05/04 10:11:56;;;;;;;15.90;13.20;;;;;;;;;;5090777;28;20464;-77
2022/05/04 10:14:23;;;;;;;18.23;13.50;;;;;;;;;;5093245;28;20533;-77
2022/05/04 10:16:54;;;;;;;15.50;11.93;;;;;;;;;;5092913;28;20459;-78
2022/05/04 10:19:25;;;;;;;22.80;14.60;;;;;;;;;;5116888;27;20494;-78
2022/05/04 10:21:55;;;;;;;17.17;13.50;;;;;;;;;;5121419;27;20449;-77
2022/05/04 10:24:23;;;;;;;16.23;14.40;;;;;;;;;;5134868;27;20485;-78
2022/05/04 10:26:52;;;;;;;18.07;12.30;;;;;;;;;;5135309;27;20474;-78
2022/05/04 10:32:29;;;;;;;16.30;13.20;;;;;;;;;;5134048;27;20454;-78
2022/05/04 10:35:11;;;;;;;17.80;12.87;;;;;;;;;;5119085;27;20466;-78
2022/05/04 10:37:53;;;;;;;22.20;16.60;;;;;;;;;;5096301;28;20431;-76
2022/05/04 10:40:26;;;;;;;20.47;14.47;;;;;;;;;;5104824;27;20440;-77
2022/05/04 10:42:56;;;;;;;18.30;14.67;;;;;;;;;;5119442;27;20445;-76
2022/05/04 10:45:26;;;;;;;16.90;14.30;;;;;;;;;;5117692;27;20487;-77
2022/05/04 10:47:54;;;;;;;20.30;14.63;;;;;;;;;;5114758;28;20441;-78
2022/05/04 10:50:21;;;;;;;25.63;17.90;;;;;;;;;;5114658;28;20438;-76
2022/05/04 10:52:51;;;;;;;21.57;16.47;;;;;;;;;;5114702;28;20438;-78
2022/05/04 10:55:19;;;;;;;18.13;14.93;;;;;;;;;;5115118;28;20439;-78
2022/05/04 10:57:46;;;;;;;24.30;17.67;;;;;;;;;;5115315;28;20488;-77
2022/05/04 11:00:21;;;;;;;23.57;16.83;;;;;;;;;;5116531;28;20795;-77
2022/05/04 11:02:50;;;;;;;21.13;16.90;;;;;;;;;;5116895;27;20437;-77
2022/05/04 11:05:17;;;;;;;23.77;16.00;;;;;;;;;;5120501;27;20431;-77
2022/05/04 11:07:48;;;;;;;18.53;12.27;;;;;;;;;;5116938;27;20800;-77
2022/05/04 11:10:15;;;;;;;18.70;13.87;;;;;;;;;;5114038;28;20469;-78
2022/05/04 11:12:43;;;;;;;22.40;16.77;;;;;;;;;;5114045;28;20442;-78
2022/05/04 11:15:11;;;;;;;21.73;15.47;;;;;;;;;;5114029;28;20967;-76
2022/05/04 11:17:39;;;;;;;23.37;17.27;;;;;;;;;;5114518;28;20461;-76
2022/05/04 11:20:07;;;;;;;21.83;16.00;;;;;;;;;;5115032;28;20553;-78
2022/05/04 11:22:40;;;;;;;21.13;16.60;;;;;;;;;;5116190;28;20469;-77
2022/05/04 11:25:07;;;;;;;20.17;16.27;;;;;;;;;;5117489;27;20858;-79
2022/05/04 11:27:35;;;;;;;21.57;18.43;;;;;;;;;;5118549;27;20511;-77
2022/05/04 11:30:04;;;;;;;25.27;18.57;;;;;;;;;;5116326;27;20446;-78
2022/05/04 11:32:33;;;;;;;18.50;16.50;;;;;;;;;;5113609;28;20498;-78
2022/05/04 11:35:02;;;;;;;19.37;15.30;;;;;;;;;;5113689;28;20682;-77
2022/05/04 11:37:32;;;;;;;21.80;17.57;;;;;;;;;;5112412;28;20438;-78
2022/05/04 11:39:59;;;;;;;25.43;17.63;;;;;;;;;;5113005;28;20430;-78
2022/05/04 11:42:26;;;;;;;22.80;14.73;;;;;;;;;;5114579;28;20481;-78
2022/05/04 11:44:56;;;;;;;20.70;15.80;;;;;;;;;;5115761;28;20486;-78
2022/05/04 11:47:23;;;;;;;22.20;18.13;;;;;;;;;;5117410;27;20438;-77
2022/05/04 11:49:51;;;;;;;22.60;15.60;;;;;;;;;;5119551;27;20426;-78
2022/05/04 11:52:19;;;;;;;20.40;17.67;;;;;;;;;;5126729;27;20457;-77
2022/05/04 11:54:46;;;;;;;26.63;19.27;;;;;;;;;;5133815;27;20801;-78
2022/05/04 11:57:14;;;;;;;22.00;17.40;;;;;;;;;;5133633;27;20445;-78
2022/05/04 11:59:41;;;;;;;21.40;16.80;;;;;;;;;;5133792;27;20465;-76
2022/05/04 12:02:10;;;;;;;25.93;17.50;;;;;;;;;;5134165;27;20449;-76
2022/05/04 12:04:37;;;;;;;20.73;15.13;;;;;;;;;;5119289;27;20970;-77
2022/05/04 12:07:05;;;;;;;24.10;17.73;;;;;;;;;;5115068;28;20438;-78
2022/05/04 12:09:33;;;;;;;22.53;18.10;;;;;;;;;;5116902;27;20446;-78
2022/05/04 12:12:01;;;;;;;21.07;16.73;;;;;;;;;;5118900;27;20446;-77
2022/05/04 12:14:28;;;;;;;22.70;17.83;;;;;;;;;;5126020;27;20825;-77
2022/05/04 12:16:57;;;;;;;22.63;18.10;;;;;;;;;;5133104;27;20461;-76
2022/05/04 12:19:24;;;;;;;24.43;19.20;;;;;;;;;;5133654;27;20441;-78
2022/05/04 12:21:52;;;;;;;23.63;18.73;;;;;;;;;;5133515;27;20453;-77
2022/05/04 12:24:20;;;;;;;22.87;18.43;;;;;;;;;;5133888;27;20487;-77
2022/05/04 12:26:48;;;;;;;21.43;17.47;;;;;;;;;;5120178;27;20443;-77
2022/05/04 12:34:42;;;;;;;20.93;16.57;;;;;;;;;;5102868;27;20786;-77
2022/05/04 12:37:11;;;;;;;22.77;16.73;;;;;;;;;;5113888;27;20434;-77
2022/05/04 12:39:41;;;;;;;21.77;17.17;;;;;;;;;;5112372;28;20434;-78
2022/05/04 12:42:10;;;;;;;19.83;17.07;;;;;;;;;;5111746;28;20462;-77
2022/05/04 12:44:37;;;;;;;23.90;18.17;;;;;;;;;;5112801;28;20979;-78
2022/05/04 12:47:05;;;;;;;19.27;14.50;;;;;;;;;;5112643;28;20442;-76
2022/05/04 12:49:32;;;;;;;21.00;15.90;;;;;;;;;;5113676;28;20458;-78
2022/05/04 12:51:59;;;;;;;16.13;14.43;;;;;;;;;;5114351;28;20486;-79
2022/05/04 12:54:26;;;;;;;20.77;15.63;;;;;;;;;;5116837;27;20443;-78
2022/05/04 12:56:53;;;;;;;20.60;16.90;;;;;;;;;;5118199;27;20414;-77
2022/05/04 12:59:21;;;;;;;21.83;15.90;;;;;;;;;;5127647;27;20935;-78
2022/05/04 13:01:48;;;;;;;15.90;13.97;;;;;;;;;;5132547;27;20444;-77
2022/05/04 13:04:17;;;;;;;17.63;14.70;;;;;;;;;;5131379;27;20469;-77
2022/05/04 13:06:46;;;;;;;16.63;14.67;;;;;;;;;;5132926;27;20973;-78
2022/05/04 13:09:13;;;;;;;18.47;15.03;;;;;;;;;;5132777;27;20448;-78
2022/05/04 13:11:41;;;;;;;21.67;17.23;;;;;;;;;;5115511;27;20466;-78
2022/05/04 13:14:08;;;;;;;19.50;15.80;;;;;;;;;;5114219;28;20441;-79
2022/05/04 13:16:37;;;;;;;19.50;15.03;;;;;;;;;;5116207;27;20462;-77
2022/05/04 13:19:06;;;;;;;23.13;12.57;;;;;;;;;;5117831;27;20479;-78
2022/05/04 13:21:33;;;;;;;16.60;14.80;;;;;;;;;;5113281;27;20462;-78
2022/05/04 13:24:01;;;;;;;17.93;14.27;;;;;;;;;;5111565;28;20479;-77
2022/05/04 13:26:28;;;;;;;18.27;15.67;;;;;;;;;;5112071;28;20533;-78
2022/05/04 13:28:55;;;;;;;13.10;11.80;;;;;;;;;;5112148;28;20439;-78
2022/05/04 13:31:23;;;;;;;13.30;11.80;;;;;;;;;;5112024;28;20458;-77
2022/05/04 13:33:52;;;;;;;16.50;12.80;;;;;;;;;;5113107;28;20819;-78
2022/05/04 13:36:19;;;;;;;20.63;12.27;;;;;;;;;;5113831;28;20474;-78
2022/05/04 13:38:46;;;;;;;13.93;11.10;;;;;;;;;;5116047;28;20438;-77
2022/05/04 13:41:13;;;;;;;14.10;10.17;;;;;;;;;;5117603;27;20449;-78
2022/05/04 13:43:41;;;;;;;11.50;8.90;;;;;;;;;;5126058;27;20437;-77
2022/05/04 13:46:08;;;;;;;10.73;7.63;;;;;;;;;;5132087;27;20465;-79
2022/05/04 13:48:37;;;;;;;9.97;7.70;;;;;;;;;;5132179;27;20795;-78
2022/05/04 13:53:46;;;;;;;12.63;7.30;;;;;;;;;;5134112;27;20422;-78
2022/05/04 13:56:13;;;;;;;9.13;6.87;;;;;;;;;;5119148;27;20943;-78
2022/05/04 13:58:41;;;;;;;10.23;8.00;;;;;;;;;;5118091;28;20440;-77
2022/05/04 14:01:08;;;;;;;12.10;7.57;;;;;;;;;;5120232;27;20453;-77
2022/05/04 14:03:36;;;;;;;11.37;7.40;;;;;;;;;;5121467;27;20452;-78
2022/05/04 14:06:04;;;;;;;8.97;7.03;;;;;;;;;;5131617;27;20484;-77
2022/05/04 14:08:32;;;;;;;8.73;6.33;;;;;;;;;;5135840;27;20442;-77
2022/05/04 14:10:59;;;;;;;11.07;5.70;;;;;;;;;;5136009;27;20433;-77
2022/05/04 14:13:27;;;;;;;11.47;5.80;;;;;;;;;;5136250;27;20438;-76
2022/05/04 14:15:56;;;;;;;7.77;5.83;;;;;;;;;;5135717;27;20443;-78
2022/05/04 14:18:23;;;;;;;8.90;5.80;;;;;;;;;;5118558;27;20482;-77
2022/05/04 14:20:51;;;;;;;10.33;5.50;;;;;;;;;;5117384;28;20465;-78
2022/05/04 14:23:19;;;;;;;8.20;5.30;;;;;;;;;;5118527;27;20453;-77
2022/05/04 14:25:47;;;;;;;11.90;5.30;;;;;;;;;;5120954;27;20503;-78
2022/05/04 14:28:14;;;;;;;8.87;5.57;;;;;;;;;;5106961;27;20469;-76
2022/05/04 14:30:42;;;;;;;8.60;6.13;;;;;;;;;;5093467;28;20437;-77
2022/05/04 14:33:09;;;;;;;7.80;5.27;;;;;;;;;;5093921;28;20409;-77
2022/05/04 14:35:36;;;;;;;7.70;5.37;;;;;;;;;;5094776;28;20426;-77
2022/05/04 14:38:04;;;;;;;6.70;5.20;;;;;;;;;;5094520;28;20440;-79
2022/05/04 14:40:31;;;;;;;12.17;5.60;;;;;;;;;;5129140;27;20950;-77
2022/05/04 14:43:00;;;;;;;8.53;5.33;;;;;;;;;;5120663;27;20436;-78
2022/05/04 14:45:28;;;;;;;8.53;5.30;;;;;;;;;;5118824;27;20480;-76
2022/05/04 14:47:57;;;;;;;11.83;5.67;;;;;;;;;;5114754;28;20442;-77
2022/05/04 14:50:24;;;;;;;7.37;5.30;;;;;;;;;;5114600;28;20409;-77
2022/05/04 14:52:52;;;;;;;14.27;6.10;;;;;;;;;;5114728;28;20532;-77
2022/05/04 14:55:19;;;;;;;8.73;6.00;;;;;;;;;;5115260;28;20771;-77
2022/05/04 14:57:46;;;;;;;7.33;5.87;;;;;;;;;;5114849;28;20462;-78
2022/05/04 15:00:16;;;;;;;8.90;5.47;;;;;;;;;;5116619;28;20438;-78
2022/05/04 15:05:24;;;;;;;8.80;5.83;;;;;;;;;;5118107;27;20465;-77
2022/05/04 15:07:51;;;;;;;14.87;5.57;;;;;;;;;;5123743;27;20433;-77
2022/05/04 15:10:20;;;;;;;7.90;5.00;;;;;;;;;;5134459;27;20422;-77